www.cux-wetter.de
Wetterdaten: Montag, 20.05.2013
Datum Zeit Temp. A. Feuchte A. Luftdruck Regen Wind Richtung Richtung Sonnenschein Solar Taupunkt Windchill Windben
20.05.2013 00:00 11,2 C 90 % 1007,5 hPa 0,0 l/m 4,5 km/h (1 Bft) SW 215 0 min 0 W/m 9,6 C 11,2 C 4,5 km/h (1 Bft)
20.05.2013 00:15 11,2 C 91 % 1007,5 hPa 0,0 l/m 3,1 km/h (1 Bft) SW 215 0 min 0 W/m 9,8 C 11,2 C 3,1 km/h (1 Bft)
20.05.2013 00:30 11,2 C 91 % 1006,5 hPa 0,0 l/m 8,7 km/h (2 Bft) NW 305 0 min 0 W/m 9,8 C 9,7 C 8,7 km/h (2 Bft)
20.05.2013 00:44 11,1 C 91 % 1006,5 hPa 0,0 l/m 10,5 km/h (2 Bft) W-NW 300 0 min 0 W/m 9,7 C 8,5 C 10,5 km/h (2 Bft)
20.05.2013 00:59 11,1 C 91 % 1006,5 hPa 0,0 l/m 10,1 km/h (2 Bft) W 275 0 min 0 W/m 9,7 C 8,8 C 10,1 km/h (2 Bft)
20.05.2013 01:15 11,0 C 91 % 1006,5 hPa 0,0 l/m 7,9 km/h (2 Bft) NW 315 0 min 0 W/m 9,6 C 10,0 C 7,9 km/h (2 Bft)
20.05.2013 01:30 11,0 C 91 % 1006,5 hPa 0,0 l/m 7,8 km/h (2 Bft) N 350 0 min 0 W/m 9,6 C 10,0 C 7,8 km/h (2 Bft)
20.05.2013 01:44 10,9 C 91 % 1006,5 hPa 0,0 l/m 8,9 km/h (2 Bft) N 350 0 min 0 W/m 9,5 C 9,2 C 8,9 km/h (2 Bft)
20.05.2013 01:59 10,8 C 91 % 1006,5 hPa 0,0 l/m 11,7 km/h (2 Bft) N-NO 15 0 min 0 W/m 9,4 C 7,6 C 11,7 km/h (2 Bft)
20.05.2013 02:15 10,9 C 91 % 1006,5 hPa 0,0 l/m 12,3 km/h (2 Bft) N 360 0 min 0 W/m 9,5 C 7,4 C 12,3 km/h (2 Bft)
20.05.2013 02:30 10,8 C 91 % 1006,5 hPa 0,0 l/m 7,2 km/h (2 Bft) N 5 0 min 0 W/m 9,4 C 10,2 C 7,2 km/h (2 Bft)
20.05.2013 02:44 11,0 C 91 % 1006,5 hPa 0,0 l/m 4,6 km/h (1 Bft) N-NO 20 0 min 0 W/m 9,6 C 11,0 C 4,6 km/h (1 Bft)
20.05.2013 02:59 11,0 C 91 % 1006,5 hPa 0,0 l/m 0,0 km/h (0 Bft) N-NO 20 0 min 0 W/m 9,6 C 11,0 C 0,0 km/h (0 Bft)
20.05.2013 03:15 11,1 C 91 % 1006,5 hPa 0,0 l/m 0,0 km/h (0 Bft) N-NO 20 0 min 0 W/m 9,7 C 11,1 C 0,0 km/h (0 Bft)
20.05.2013 03:29 11,1 C 91 % 1006,5 hPa 0,0 l/m 0,0 km/h (0 Bft) N-NO 20 0 min 0 W/m 9,7 C 11,1 C 0,0 km/h (0 Bft)
20.05.2013 03:44 11,0 C 91 % 1005,5 hPa 0,0 l/m 4,5 km/h (1 Bft) N 5 0 min 0 W/m 9,6 C 11,0 C 4,5 km/h (1 Bft)
20.05.2013 03:59 11,2 C 91 % 1005,5 hPa 0,0 l/m 0,1 km/h (0 Bft) N 360 0 min 0 W/m 9,8 C 11,2 C 0,1 km/h (0 Bft)
20.05.2013 04:15 11,2 C 91 % 1005,5 hPa 0,0 l/m 0,0 km/h (0 Bft) N 360 0 min 0 W/m 9,8 C 11,2 C 0,0 km/h (0 Bft)
20.05.2013 04:29 11,2 C 91 % 1005,5 hPa 0,0 l/m 0,0 km/h (0 Bft) N 360 0 min 0 W/m 9,8 C 11,2 C 0,0 km/h (0 Bft)
20.05.2013 04:44 11,2 C 91 % 1005,5 hPa 0,0 l/m 0,0 km/h (0 Bft) N 360 0 min 0 W/m 9,8 C 11,2 C 0,0 km/h (0 Bft)
20.05.2013 04:59 11,2 C 91 % 1005,5 hPa 0,0 l/m 0,0 km/h (0 Bft) N 360 0 min 0 W/m 9,8 C 11,2 C 0,0 km/h (0 Bft)
20.05.2013 05:15 11,2 C 91 % 1005,5 hPa 0,0 l/m 0,6 km/h (0 Bft) N 360 0 min 0 W/m 9,8 C 11,2 C 0,6 km/h (0 Bft)
20.05.2013 05:29 11,1 C 91 % 1005,5 hPa 0,0 l/m 0,1 km/h (0 Bft) N 360 0 min 0 W/m 9,7 C 11,1 C 0,1 km/h (0 Bft)
20.05.2013 05:44 11,2 C 91 % 1005,5 hPa 0,0 l/m 0,1 km/h (0 Bft) N 360 0 min 0 W/m 9,8 C 11,2 C 0,1 km/h (0 Bft)
20.05.2013 05:59 11,2 C 91 % 1005,5 hPa 0,0 l/m 0,0 km/h (0 Bft) N 360 0 min 0 W/m 9,8 C 11,2 C 0,0 km/h (0 Bft)
20.05.2013 06:15 11,3 C 91 % 1005,5 hPa 0,0 l/m 0,1 km/h (0 Bft) N 360 0 min 0 W/m 9,9 C 11,3 C 0,1 km/h (0 Bft)
20.05.2013 06:29 11,3 C 91 % 1005,5 hPa 0,0 l/m 0,9 km/h (0 Bft) N 360 0 min 0 W/m 9,9 C 11,3 C 0,9 km/h (0 Bft)
20.05.2013 06:44 11,4 C 92 % 1005,5 hPa 0,0 l/m 3,6 km/h (1 Bft) N 360 0 min 0 W/m 10,1 C 11,4 C 3,6 km/h (1 Bft)
20.05.2013 06:59 11,3 C 92 % 1005,5 hPa 0,0 l/m 4,5 km/h (1 Bft) N 350 0 min 0 W/m 10,0 C 11,3 C 4,5 km/h (1 Bft)
20.05.2013 07:15 11,4 C 92 % 1005,5 hPa 0,0 l/m 4,5 km/h (1 Bft) SW 235 0 min 0 W/m 10,1 C 11,4 C 4,5 km/h (1 Bft)
20.05.2013 07:29 11,6 C 92 % 1005,5 hPa 0,0 l/m 5,0 km/h (1 Bft) SW 230 0 min 0 W/m 10,3 C 11,6 C 5,0 km/h (1 Bft)
20.05.2013 07:45 11,6 C 92 % 1005,5 hPa 0,0 l/m 4,3 km/h (1 Bft) SW 235 0 min 0 W/m 10,3 C 11,6 C 4,3 km/h (1 Bft)
20.05.2013 08:00 11,7 C 92 % 1005,5 hPa 0,0 l/m 2,6 km/h (1 Bft) SW 235 0 min 0 W/m 10,4 C 11,7 C 2,6 km/h (1 Bft)
20.05.2013 08:15 11,9 C 92 % 1005,5 hPa 0,0 l/m 4,0 km/h (1 Bft) SW 235 0 min 0 W/m 10,6 C 11,9 C 4,0 km/h (1 Bft)
20.05.2013 08:30 11,9 C 92 % 1005,5 hPa 0,0 l/m 5,2 km/h (1 Bft) SW 235 0 min 0 W/m 10,6 C 11,9 C 5,2 km/h (1 Bft)
20.05.2013 08:45 12,1 C 92 % 1005,5 hPa 0,0 l/m 0,3 km/h (0 Bft) SW 230 0 min 0 W/m 10,8 C 12,1 C 0,3 km/h (0 Bft)
20.05.2013 09:00 12,4 C 92 % 1005,5 hPa 0,0 l/m 2,8 km/h (1 Bft) SW 235 0 min 0 W/m 11,1 C 12,4 C 2,8 km/h (1 Bft)
20.05.2013 09:15 12,6 C 92 % 1005,5 hPa 0,0 l/m 4,4 km/h (1 Bft) SW 235 0 min 0 W/m 11,3 C 12,6 C 4,4 km/h (1 Bft)
20.05.2013 09:30 12,8 C 91 % 1005,5 hPa 0,0 l/m 4,5 km/h (1 Bft) SW 230 0 min 0 W/m 11,4 C 12,8 C 4,5 km/h (1 Bft)
20.05.2013 09:45 12,8 C 91 % 1005,5 hPa 0,0 l/m 4,2 km/h (1 Bft) SW 235 0 min 0 W/m 11,4 C 12,8 C 4,2 km/h (1 Bft)
20.05.2013 10:00 13,2 C 91 % 1005,5 hPa 0,0 l/m 7,8 km/h (2 Bft) W-NW 290 0 min 0 W/m 11,8 C 12,3 C 7,8 km/h (2 Bft)
20.05.2013 10:15 13,5 C 90 % 1005,5 hPa 0,0 l/m 8,7 km/h (2 Bft) NW 305 0 min 0 W/m 11,9 C 12,1 C 8,7 km/h (2 Bft)
20.05.2013 10:30 14,2 C 89 % 1005,5 hPa 0,0 l/m 6,5 km/h (2 Bft) W-SW 250 0 min 0 W/m 12,4 C 14,2 C 6,5 km/h (2 Bft)
20.05.2013 10:45 14,2 C 88 % 1005,5 hPa 0,0 l/m 6,8 km/h (2 Bft) W-SW 250 0 min 0 W/m 12,2 C 14,0 C 6,8 km/h (2 Bft)
20.05.2013 11:00 14,5 C 88 % 1005,5 hPa 0,0 l/m 6,8 km/h (2 Bft) W-NW 285 0 min 0 W/m 12,5 C 14,3 C 6,8 km/h (2 Bft)
20.05.2013 11:15 14,4 C 87 % 1005,5 hPa 0,0 l/m 13,8 km/h (3 Bft) NW 320 0 min 0 W/m 12,3 C 10,9 C 13,8 km/h (3 Bft)
20.05.2013 11:30 14,4 C 87 % 1006,5 hPa 0,0 l/m 12,5 km/h (2 Bft) W-NW 300 0 min 0 W/m 12,3 C 11,4 C 12,5 km/h (2 Bft)
20.05.2013 11:45 14,0 C 86 % 1006,5 hPa 0,0 l/m 13,0 km/h (3 Bft) NW 325 0 min 0 W/m 11,7 C 10,7 C 13,0 km/h (3 Bft)
20.05.2013 12:00 13,7 C 86 % 1006,5 hPa 0,0 l/m 14,6 km/h (3 Bft) NW 320 0 min 0 W/m 11,4 C 9,8 C 14,6 km/h (3 Bft)
20.05.2013 12:15 13,6 C 86 % 1005,5 hPa 0,0 l/m 12,5 km/h (2 Bft) NW 320 0 min 0 W/m 11,3 C 10,5 C 12,5 km/h (2 Bft)
20.05.2013 12:30 13,8 C 86 % 1006,5 hPa 0,0 l/m 10,9 km/h (2 Bft) SW 235 0 min 0 W/m 11,5 C 11,4 C 10,9 km/h (2 Bft)
20.05.2013 12:45 14,0 C 86 % 1006,5 hPa 0,0 l/m 5,5 km/h (2 Bft) NW 305 0 min 0 W/m 11,7 C 14,0 C 5,5 km/h (2 Bft)
20.05.2013 13:00 14,4 C 86 % 1006,5 hPa 0,0 l/m 5,7 km/h (2 Bft) W-SW 255 0 min 0 W/m 12,1 C 14,4 C 5,7 km/h (2 Bft)
20.05.2013 13:15 14,6 C 85 % 1006,5 hPa 0,0 l/m 5,7 km/h (2 Bft) NW 320 0 min 0 W/m 12,1 C 14,6 C 5,7 km/h (2 Bft)
20.05.2013 13:30 14,5 C 85 % 1006,5 hPa 0,0 l/m 10,4 km/h (2 Bft) N-NW 340 0 min 0 W/m 12,0 C 12,4 C 10,4 km/h (2 Bft)
20.05.2013 13:45 14,4 C 85 % 1006,5 hPa 0,0 l/m 8,1 km/h (2 Bft) NW 320 0 min 0 W/m 11,9 C 13,4 C 8,1 km/h (2 Bft)
20.05.2013 14:00 14,3 C 85 % 1006,5 hPa 0,0 l/m 8,9 km/h (2 Bft) N 350 0 min 0 W/m 11,8 C 12,9 C 8,9 km/h (2 Bft)
20.05.2013 14:15 14,3 C 85 % 1006,5 hPa 0,0 l/m 4,8 km/h (1 Bft) NW 310 0 min 0 W/m 11,8 C 14,3 C 4,8 km/h (1 Bft)
20.05.2013 14:30 14,4 C 85 % 1006,5 hPa 0,0 l/m 3,9 km/h (1 Bft) NW 305 0 min 0 W/m 11,9 C 14,4 C 3,9 km/h (1 Bft)
20.05.2013 14:45 14,5 C 86 % 1006,5 hPa 0,0 l/m 5,4 km/h (2 Bft) W-NW 285 0 min 0 W/m 12,2 C 14,5 C 5,4 km/h (2 Bft)
20.05.2013 15:00 14,6 C 85 % 1006,5 hPa 0,0 l/m 5,8 km/h (2 Bft) W-SW 250 0 min 0 W/m 12,1 C 14,6 C 5,8 km/h (2 Bft)
20.05.2013 15:15 14,9 C 85 % 1006,5 hPa 0,0 l/m 7,2 km/h (2 Bft) NW 310 0 min 0 W/m 12,4 C 14,4 C 7,2 km/h (2 Bft)
20.05.2013 15:30 15,0 C 85 % 1006,5 hPa 0,0 l/m 6,3 km/h (2 Bft) N-NW 330 0 min 0 W/m 12,5 C 15,0 C 6,3 km/h (2 Bft)
20.05.2013 15:45 14,8 C 85 % 1006,5 hPa 0,0 l/m 6,3 km/h (2 Bft) NW 310 0 min 0 W/m 12,3 C 14,8 C 6,3 km/h (2 Bft)
20.05.2013 16:00 14,6 C 85 % 1006,5 hPa 0,0 l/m 12,1 km/h (2 Bft) N-NO 20 0 min 0 W/m 12,1 C 11,8 C 12,1 km/h (2 Bft)
20.05.2013 16:15 14,4 C 86 % 1006,5 hPa 0,0 l/m 5,7 km/h (2 Bft) N-NO 30 0 min 0 W/m 12,1 C 14,4 C 5,7 km/h (2 Bft)
20.05.2013 16:30 14,4 C 87 % 1006,5 hPa 0,0 l/m 1,8 km/h (1 Bft) N-NO 30 0 min 0 W/m 12,3 C 14,4 C 1,8 km/h (1 Bft)
20.05.2013 16:45 14,4 C 87 % 1006,5 hPa 0,0 l/m 0,7 km/h (0 Bft) N-NO 30 0 min 0 W/m 12,3 C 14,4 C 0,7 km/h (0 Bft)
20.05.2013 17:00 14,2 C 88 % 1006,5 hPa 0,0 l/m 5,4 km/h (2 Bft) N-NO 30 0 min 0 W/m 12,2 C 14,2 C 5,4 km/h (2 Bft)
20.05.2013 17:15 14,1 C 88 % 1006,5 hPa 0,0 l/m 3,7 km/h (1 Bft) N-NO 30 0 min 0 W/m 12,1 C 14,1 C 3,7 km/h (1 Bft)
20.05.2013 17:30 14,4 C 88 % 1006,5 hPa 0,0 l/m 0,4 km/h (0 Bft) N-NO 30 0 min 0 W/m 12,4 C 14,4 C 0,4 km/h (0 Bft)
20.05.2013 17:45 14,2 C 88 % 1006,5 hPa 0,0 l/m 7,2 km/h (2 Bft) N-NO 25 0 min 0 W/m 12,2 C 13,7 C 7,2 km/h (2 Bft)
20.05.2013 18:00 14,1 C 88 % 1006,5 hPa 0,0 l/m 4,8 km/h (1 Bft) N-NO 25 0 min 0 W/m 12,1 C 14,1 C 4,8 km/h (1 Bft)
20.05.2013 18:15 14,1 C 88 % 1006,5 hPa 0,0 l/m 0,2 km/h (0 Bft) N-NO 25 0 min 0 W/m 12,1 C 14,1 C 0,2 km/h (0 Bft)
20.05.2013 18:30 14,1 C 88 % 1006,5 hPa 0,0 l/m 4,5 km/h (1 Bft) N-NO 25 0 min 0 W/m 12,1 C 14,1 C 4,5 km/h (1 Bft)
20.05.2013 18:45 14,2 C 88 % 1006,5 hPa 0,0 l/m 3,4 km/h (1 Bft) N-NO 25 0 min 0 W/m 12,2 C 14,2 C 3,4 km/h (1 Bft)
20.05.2013 19:00 14,5 C 89 % 1006,5 hPa 0,0 l/m 0,0 km/h (0 Bft) N-NO 25 0 min 0 W/m 12,7 C 14,5 C 0,0 km/h (0 Bft)
20.05.2013 19:15 14,6 C 89 % 1006,5 hPa 0,0 l/m 4,0 km/h (1 Bft) N-NO 25 0 min 0 W/m 12,8 C 14,6 C 4,0 km/h (1 Bft)
20.05.2013 19:30 14,6 C 89 % 1006,5 hPa 0,0 l/m 4,8 km/h (1 Bft) N-NO 25 0 min 0 W/m 12,8 C 14,6 C 4,8 km/h (1 Bft)
20.05.2013 19:45 14,4 C 88 % 1006,5 hPa 0,0 l/m 6,3 km/h (2 Bft) W-NW 300 0 min 0 W/m 12,4 C 14,4 C 6,3 km/h (2 Bft)
20.05.2013 20:00 14,3 C 88 % 1006,5 hPa 0,0 l/m 8,3 km/h (2 Bft) NW 320 0 min 0 W/m 12,3 C 13,2 C 8,3 km/h (2 Bft)
20.05.2013 20:15 14,3 C 88 % 1006,5 hPa 0,0 l/m 5,3 km/h (1 Bft) NW 305 0 min 0 W/m 12,3 C 14,3 C 5,3 km/h (1 Bft)
20.05.2013 20:30 14,2 C 88 % 1006,5 hPa 0,0 l/m 3,3 km/h (1 Bft) W-NW 295 0 min 0 W/m 12,2 C 14,2 C 3,3 km/h (1 Bft)
20.05.2013 20:45 14,1 C 88 % 1007,5 hPa 0,0 l/m 0,3 km/h (0 Bft) W-NW 295 0 min 0 W/m 12,1 C 14,1 C 0,3 km/h (0 Bft)
20.05.2013 21:00 14,1 C 88 % 1007,5 hPa 0,0 l/m 0,0 km/h (0 Bft) W-NW 295 0 min 0 W/m 12,1 C 14,1 C 0,0 km/h (0 Bft)
20.05.2013 21:15 14,0 C 88 % 1007,5 hPa 0,0 l/m 3,9 km/h (1 Bft) W 280 0 min 0 W/m 12,0 C 14,0 C 3,9 km/h (1 Bft)
20.05.2013 21:30 14,1 C 89 % 1007,5 hPa 0,0 l/m 5,0 km/h (1 Bft) W-SW 245 0 min 0 W/m 12,3 C 14,1 C 5,0 km/h (1 Bft)
20.05.2013 21:45 14,0 C 89 % 1007,5 hPa 0,0 l/m 7,3 km/h (2 Bft) W-SW 245 0 min 0 W/m 12,2 C 13,5 C 7,3 km/h (2 Bft)
20.05.2013 22:00 14,0 C 89 % 1007,5 hPa 0,0 l/m 5,9 km/h (2 Bft) W-SW 250 0 min 0 W/m 12,2 C 14,0 C 5,9 km/h (2 Bft)
20.05.2013 22:15 13,9 C 89 % 1007,5 hPa 0,0 l/m 4,1 km/h (1 Bft) W-SW 245 0 min 0 W/m 12,1 C 13,9 C 4,1 km/h (1 Bft)
20.05.2013 22:30 13,9 C 89 % 1007,5 hPa 0,0 l/m 4,7 km/h (1 Bft) W-SW 245 0 min 0 W/m 12,1 C 13,9 C 4,7 km/h (1 Bft)
20.05.2013 22:45 14,0 C 90 % 1007,5 hPa 0,0 l/m 2,6 km/h (1 Bft) W-SW 245 0 min 0 W/m 12,4 C 14,0 C 2,6 km/h (1 Bft)
20.05.2013 23:00 13,9 C 90 % 1007,5 hPa 0,0 l/m 1,3 km/h (1 Bft) W-SW 245 0 min 0 W/m 12,3 C 13,9 C 1,3 km/h (1 Bft)
20.05.2013 23:15 13,9 C 90 % 1007,5 hPa 0,0 l/m 3,0 km/h (1 Bft) W-SW 245 0 min 0 W/m 12,3 C 13,9 C 3,0 km/h (1 Bft)
20.05.2013 23:30 14,0 C 90 % 1007,5 hPa 0,0 l/m 2,6 km/h (1 Bft) W-SW 245 0 min 0 W/m 12,4 C 14,0 C 2,6 km/h (1 Bft)
20.05.2013 23:45 13,9 C 90 % 1007,5 hPa 0,0 l/m 3,5 km/h (1 Bft) W-SW 245 0 min 0 W/m 12,3 C 13,9 C 3,5 km/h (1 Bft)
_ Min-Zeit 01:59 13:15 03:44 - 02:59 - - - - 01:59 02:15 02:59
Minimum _ 10,8 C 85 % 1005,5 hPa - 0,0 km/h (0 Bft) - - - - 9,4 C 7,4 C 0,0 km/h (0 Bft)
_ Max-Zeit 15:30 06:44 00:00 00:00 12:00 - - 00:00 00:00 19:15 15:30 12:00
Maximum _ 15,0 C 92 % 1007,5 hPa 0,0 l/m 14,6 km/h
NW (3 Bft)
- - 0 min 0 W/m 12,8 C 15,0 C 14,6 km/h
NW (3 Bft)
Durchschnitt _ 13,1 C 89 % 1006,3 hPa #0,0 l/m 5,0 km/h (1 Bft) NW - #0 min. 0 W/m 11,3 C 12,5 C 5,0 km/h (1 Bft)
copyright by Holger Just